sensor_id;sensor_type;location;lat;lon;timestamp;temperature;humidity
4312;DHT22;2169;49.086;9.284;2022-12-29T00:01:38;9.20;65.60
4312;DHT22;2169;49.086;9.284;2022-12-29T00:04:05;9.20;65.60
4312;DHT22;2169;49.086;9.284;2022-12-29T00:06:33;9.20;65.60
4312;DHT22;2169;49.086;9.284;2022-12-29T00:08:59;9.20;65.70
4312;DHT22;2169;49.086;9.284;2022-12-29T00:11:27;9.20;65.70
4312;DHT22;2169;49.086;9.284;2022-12-29T00:13:54;9.30;65.80
4312;DHT22;2169;49.086;9.284;2022-12-29T00:16:41;9.30;65.80
4312;DHT22;2169;49.086;9.284;2022-12-29T00:19:08;9.30;65.80
4312;DHT22;2169;49.086;9.284;2022-12-29T00:21:55;9.30;65.80
4312;DHT22;2169;49.086;9.284;2022-12-29T00:24:39;9.30;65.80
4312;DHT22;2169;49.086;9.284;2022-12-29T00:27:23;9.30;65.80
4312;DHT22;2169;49.086;9.284;2022-12-29T00:30:17;9.30;65.80
4312;DHT22;2169;49.086;9.284;2022-12-29T00:33:09;9.30;65.80
4312;DHT22;2169;49.086;9.284;2022-12-29T00:35:55;9.40;65.90
4312;DHT22;2169;49.086;9.284;2022-12-29T00:38:24;9.30;65.80
4312;DHT22;2169;49.086;9.284;2022-12-29T00:41:16;9.30;65.80
4312;DHT22;2169;49.086;9.284;2022-12-29T00:44:01;9.40;65.90
4312;DHT22;2169;49.086;9.284;2022-12-29T00:46:36;9.40;65.90
4312;DHT22;2169;49.086;9.284;2022-12-29T00:49:06;9.40;65.90
4312;DHT22;2169;49.086;9.284;2022-12-29T00:51:51;9.40;65.90
4312;DHT22;2169;49.086;9.284;2022-12-29T00:54:18;9.40;65.90
4312;DHT22;2169;49.086;9.284;2022-12-29T00:56:46;9.40;65.90
4312;DHT22;2169;49.086;9.284;2022-12-29T00:59:13;9.50;66.00
4312;DHT22;2169;49.086;9.284;2022-12-29T01:01:40;9.50;65.90
4312;DHT22;2169;49.086;9.284;2022-12-29T01:04:09;9.50;65.90
4312;DHT22;2169;49.086;9.284;2022-12-29T01:06:36;9.50;65.90
4312;DHT22;2169;49.086;9.284;2022-12-29T01:09:04;9.50;65.80
4312;DHT22;2169;49.086;9.284;2022-12-29T01:11:49;9.60;66.00
4312;DHT22;2169;49.086;9.284;2022-12-29T01:14:16;9.60;65.90
4312;DHT22;2169;49.086;9.284;2022-12-29T01:16:43;9.60;65.90
4312;DHT22;2169;49.086;9.284;2022-12-29T01:19:11;9.60;65.90
4312;DHT22;2169;49.086;9.284;2022-12-29T01:21:38;9.60;65.90
4312;DHT22;2169;49.086;9.284;2022-12-29T01:24:06;9.60;65.90
4312;DHT22;2169;49.086;9.284;2022-12-29T01:26:32;9.60;65.90
4312;DHT22;2169;49.086;9.284;2022-12-29T01:28:59;9.60;65.90
4312;DHT22;2169;49.086;9.284;2022-12-29T01:31:26;9.70;66.00
4312;DHT22;2169;49.086;9.284;2022-12-29T01:33:53;9.70;66.00
4312;DHT22;2169;49.086;9.284;2022-12-29T01:36:21;9.70;66.00
4312;DHT22;2169;49.086;9.284;2022-12-29T01:38:48;9.70;66.00
4312;DHT22;2169;49.086;9.284;2022-12-29T01:41:16;9.70;66.00
4312;DHT22;2169;49.086;9.284;2022-12-29T01:43:44;9.70;66.00
4312;DHT22;2169;49.086;9.284;2022-12-29T01:46:18;9.70;66.10
4312;DHT22;2169;49.086;9.284;2022-12-29T01:48:48;9.70;66.10
4312;DHT22;2169;49.086;9.284;2022-12-29T01:51:16;9.70;66.20
4312;DHT22;2169;49.086;9.284;2022-12-29T01:53:45;9.70;66.30
4312;DHT22;2169;49.086;9.284;2022-12-29T01:56:14;9.70;66.40
4312;DHT22;2169;49.086;9.284;2022-12-29T01:58:44;9.70;66.50
4312;DHT22;2169;49.086;9.284;2022-12-29T02:01:12;9.70;66.60
4312;DHT22;2169;49.086;9.284;2022-12-29T02:03:39;9.70;66.80
4312;DHT22;2169;49.086;9.284;2022-12-29T02:06:09;9.60;66.80
4312;DHT22;2169;49.086;9.284;2022-12-29T02:08:38;9.60;66.90
4312;DHT22;2169;49.086;9.284;2022-12-29T02:11:07;9.60;67.10
4312;DHT22;2169;49.086;9.284;2022-12-29T02:13:34;9.60;67.20
4312;DHT22;2169;49.086;9.284;2022-12-29T02:16:09;9.60;67.40
4312;DHT22;2169;49.086;9.284;2022-12-29T02:18:45;9.60;67.50
4312;DHT22;2169;49.086;9.284;2022-12-29T02:21:40;9.60;67.70
4312;DHT22;2169;49.086;9.284;2022-12-29T02:24:36;9.60;67.80
4312;DHT22;2169;49.086;9.284;2022-12-29T02:30:15;9.50;67.90
4312;DHT22;2169;49.086;9.284;2022-12-29T02:32:54;9.50;68.10
4312;DHT22;2169;49.086;9.284;2022-12-29T02:35:37;9.50;68.10
4312;DHT22;2169;49.086;9.284;2022-12-29T02:38:18;9.50;68.20
4312;DHT22;2169;49.086;9.284;2022-12-29T02:40:51;9.50;68.30
4312;DHT22;2169;49.086;9.284;2022-12-29T02:43:25;9.50;68.40
4312;DHT22;2169;49.086;9.284;2022-12-29T02:45:55;9.50;68.50
4312;DHT22;2169;49.086;9.284;2022-12-29T02:48:28;9.50;68.50
4312;DHT22;2169;49.086;9.284;2022-12-29T02:51:00;9.40;68.50
4312;DHT22;2169;49.086;9.284;2022-12-29T02:53:29;9.40;68.50
4312;DHT22;2169;49.086;9.284;2022-12-29T02:56:13;9.40;68.50
4312;DHT22;2169;49.086;9.284;2022-12-29T02:58:40;9.40;68.60
4312;DHT22;2169;49.086;9.284;2022-12-29T03:01:20;9.40;68.60
4312;DHT22;2169;49.086;9.284;2022-12-29T03:04:03;9.50;68.70
4312;DHT22;2169;49.086;9.284;2022-12-29T03:06:35;9.50;68.70
4312;DHT22;2169;49.086;9.284;2022-12-29T03:09:14;9.50;68.60
4312;DHT22;2169;49.086;9.284;2022-12-29T03:11:49;9.50;68.70
4312;DHT22;2169;49.086;9.284;2022-12-29T03:14:39;9.50;68.70
4312;DHT22;2169;49.086;9.284;2022-12-29T03:17:29;9.40;68.60
4312;DHT22;2169;49.086;9.284;2022-12-29T03:20:05;9.50;68.70
4312;DHT22;2169;49.086;9.284;2022-12-29T03:22:38;9.50;68.70
4312;DHT22;2169;49.086;9.284;2022-12-29T03:25:09;9.50;68.70
4312;DHT22;2169;49.086;9.284;2022-12-29T03:27:40;9.50;68.70
4312;DHT22;2169;49.086;9.284;2022-12-29T03:30:08;9.50;68.70
4312;DHT22;2169;49.086;9.284;2022-12-29T03:32:40;9.50;68.70
4312;DHT22;2169;49.086;9.284;2022-12-29T03:35:12;9.50;68.60
4312;DHT22;2169;49.086;9.284;2022-12-29T03:37:42;9.50;68.50
4312;DHT22;2169;49.086;9.284;2022-12-29T03:40:09;9.50;68.50
4312;DHT22;2169;49.086;9.284;2022-12-29T03:42:37;9.50;68.50
4312;DHT22;2169;49.086;9.284;2022-12-29T03:45:06;9.50;68.40
4312;DHT22;2169;49.086;9.284;2022-12-29T03:47:33;9.60;68.50
4312;DHT22;2169;49.086;9.284;2022-12-29T03:50:00;9.60;68.40
4312;DHT22;2169;49.086;9.284;2022-12-29T03:52:28;9.60;68.40
4312;DHT22;2169;49.086;9.284;2022-12-29T03:54:55;9.60;68.40
4312;DHT22;2169;49.086;9.284;2022-12-29T03:57:22;9.60;68.40
4312;DHT22;2169;49.086;9.284;2022-12-29T03:59:49;9.60;68.40
4312;DHT22;2169;49.086;9.284;2022-12-29T04:02:15;9.70;68.40
4312;DHT22;2169;49.086;9.284;2022-12-29T04:04:42;9.80;68.40
4312;DHT22;2169;49.086;9.284;2022-12-29T04:07:09;9.80;68.40
4312;DHT22;2169;49.086;9.284;2022-12-29T04:09:37;9.90;68.40
4312;DHT22;2169;49.086;9.284;2022-12-29T04:12:04;9.90;68.40
4312;DHT22;2169;49.086;9.284;2022-12-29T04:14:31;9.90;68.30
4312;DHT22;2169;49.086;9.284;2022-12-29T04:16:58;10.00;67.30
4312;DHT22;2169;49.086;9.284;2022-12-29T04:19:24;10.00;67.20
4312;DHT22;2169;49.086;9.284;2022-12-29T04:21:51;10.00;67.20
4312;DHT22;2169;49.086;9.284;2022-12-29T04:24:18;10.00;67.10
4312;DHT22;2169;49.086;9.284;2022-12-29T04:26:46;10.10;67.20
4312;DHT22;2169;49.086;9.284;2022-12-29T04:29:13;10.10;67.10
4312;DHT22;2169;49.086;9.284;2022-12-29T04:31:40;10.10;67.10
4312;DHT22;2169;49.086;9.284;2022-12-29T04:34:06;10.10;67.10
4312;DHT22;2169;49.086;9.284;2022-12-29T04:36:34;10.20;67.00
4312;DHT22;2169;49.086;9.284;2022-12-29T04:39:00;10.20;66.90
4312;DHT22;2169;49.086;9.284;2022-12-29T04:41:27;10.20;66.70
4312;DHT22;2169;49.086;9.284;2022-12-29T04:43:55;10.30;66.60
4312;DHT22;2169;49.086;9.284;2022-12-29T04:46:22;10.40;66.40
4312;DHT22;2169;49.086;9.284;2022-12-29T04:48:49;10.40;66.20
4312;DHT22;2169;49.086;9.284;2022-12-29T04:51:15;10.50;66.20
4312;DHT22;2169;49.086;9.284;2022-12-29T04:53:42;10.50;66.10
4312;DHT22;2169;49.086;9.284;2022-12-29T04:56:09;10.50;65.90
4312;DHT22;2169;49.086;9.284;2022-12-29T04:58:36;10.60;66.00
4312;DHT22;2169;49.086;9.284;2022-12-29T05:01:04;10.60;65.80
4312;DHT22;2169;49.086;9.284;2022-12-29T05:03:31;10.70;65.90
4312;DHT22;2169;49.086;9.284;2022-12-29T05:05:58;10.70;65.70
4312;DHT22;2169;49.086;9.284;2022-12-29T05:08:24;10.70;65.60
4312;DHT22;2169;49.086;9.284;2022-12-29T05:10:51;10.80;65.60
4312;DHT22;2169;49.086;9.284;2022-12-29T05:13:18;10.80;65.60
4312;DHT22;2169;49.086;9.284;2022-12-29T05:15:47;10.80;65.40
4312;DHT22;2169;49.086;9.284;2022-12-29T05:18:17;10.90;65.40
4312;DHT22;2169;49.086;9.284;2022-12-29T05:20:44;10.90;65.30
4312;DHT22;2169;49.086;9.284;2022-12-29T05:23:11;10.90;65.20
4312;DHT22;2169;49.086;9.284;2022-12-29T05:25:38;11.00;65.20
4312;DHT22;2169;49.086;9.284;2022-12-29T05:28:05;11.00;65.00
4312;DHT22;2169;49.086;9.284;2022-12-29T05:30:31;11.10;65.00
4312;DHT22;2169;49.086;9.284;2022-12-29T05:32:58;11.10;64.90
4312;DHT22;2169;49.086;9.284;2022-12-29T05:35:26;11.10;64.80
4312;DHT22;2169;49.086;9.284;2022-12-29T05:37:53;11.20;64.80
4312;DHT22;2169;49.086;9.284;2022-12-29T05:40:21;11.20;65.00
4312;DHT22;2169;49.086;9.284;2022-12-29T05:42:48;11.20;64.70
4312;DHT22;2169;49.086;9.284;2022-12-29T05:45:14;11.20;64.60
4312;DHT22;2169;49.086;9.284;2022-12-29T05:47:41;11.20;65.30
4312;DHT22;2169;49.086;9.284;2022-12-29T05:50:08;11.30;64.60
4312;DHT22;2169;49.086;9.284;2022-12-29T05:52:36;11.30;64.50
4312;DHT22;2169;49.086;9.284;2022-12-29T05:55:03;11.30;64.50
4312;DHT22;2169;49.086;9.284;2022-12-29T05:57:30;11.30;64.50
4312;DHT22;2169;49.086;9.284;2022-12-29T05:59:57;11.30;64.50
4312;DHT22;2169;49.086;9.284;2022-12-29T06:02:24;11.30;64.60
4312;DHT22;2169;49.086;9.284;2022-12-29T06:04:51;11.30;64.50
4312;DHT22;2169;49.086;9.284;2022-12-29T06:07:17;11.50;64.30
4312;DHT22;2169;49.086;9.284;2022-12-29T06:09:46;11.50;64.50
4312;DHT22;2169;49.086;9.284;2022-12-29T06:12:12;11.40;64.50
4312;DHT22;2169;49.086;9.284;2022-12-29T06:14:39;11.40;64.50
4312;DHT22;2169;49.086;9.284;2022-12-29T06:17:06;11.40;64.50
4312;DHT22;2169;49.086;9.284;2022-12-29T06:19:33;11.40;64.50
4312;DHT22;2169;49.086;9.284;2022-12-29T06:22:00;11.40;64.60
4312;DHT22;2169;49.086;9.284;2022-12-29T06:24:27;11.50;64.70
4312;DHT22;2169;49.086;9.284;2022-12-29T06:26:55;11.50;64.70
4312;DHT22;2169;49.086;9.284;2022-12-29T06:29:22;11.50;64.70
4312;DHT22;2169;49.086;9.284;2022-12-29T06:31:49;11.50;64.70
4312;DHT22;2169;49.086;9.284;2022-12-29T06:34:16;11.50;64.70
4312;DHT22;2169;49.086;9.284;2022-12-29T06:36:43;11.50;64.80
4312;DHT22;2169;49.086;9.284;2022-12-29T06:39:10;11.50;64.70
4312;DHT22;2169;49.086;9.284;2022-12-29T06:41:37;11.50;64.70
4312;DHT22;2169;49.086;9.284;2022-12-29T06:44:05;11.50;64.60
4312;DHT22;2169;49.086;9.284;2022-12-29T06:46:32;11.50;64.60
4312;DHT22;2169;49.086;9.284;2022-12-29T06:48:59;11.60;64.80
4312;DHT22;2169;49.086;9.284;2022-12-29T06:51:26;11.50;65.30
4312;DHT22;2169;49.086;9.284;2022-12-29T06:53:52;11.50;64.70
4312;DHT22;2169;49.086;9.284;2022-12-29T06:56:19;11.60;64.90
4312;DHT22;2169;49.086;9.284;2022-12-29T06:58:46;11.60;64.90
4312;DHT22;2169;49.086;9.284;2022-12-29T07:01:14;11.60;64.80
4312;DHT22;2169;49.086;9.284;2022-12-29T07:03:41;11.60;64.90
4312;DHT22;2169;49.086;9.284;2022-12-29T07:06:08;11.60;64.90
4312;DHT22;2169;49.086;9.284;2022-12-29T07:08:35;11.60;64.80
4312;DHT22;2169;49.086;9.284;2022-12-29T07:11:02;11.60;64.80
4312;DHT22;2169;49.086;9.284;2022-12-29T07:13:29;11.60;64.70
4312;DHT22;2169;49.086;9.284;2022-12-29T07:15:56;11.60;64.80
4312;DHT22;2169;49.086;9.284;2022-12-29T07:18:24;11.60;64.80
4312;DHT22;2169;49.086;9.284;2022-12-29T07:20:51;11.60;64.80
4312;DHT22;2169;49.086;9.284;2022-12-29T07:23:17;11.60;64.90
4312;DHT22;2169;49.086;9.284;2022-12-29T07:25:44;11.60;64.90
4312;DHT22;2169;49.086;9.284;2022-12-29T07:28:12;11.60;64.90
4312;DHT22;2169;49.086;9.284;2022-12-29T07:30:39;11.60;64.90
4312;DHT22;2169;49.086;9.284;2022-12-29T07:33:06;11.60;64.80
4312;DHT22;2169;49.086;9.284;2022-12-29T07:35:35;11.60;64.80
4312;DHT22;2169;49.086;9.284;2022-12-29T07:38:02;11.60;64.70
4312;DHT22;2169;49.086;9.284;2022-12-29T07:40:28;11.70;64.80
4312;DHT22;2169;49.086;9.284;2022-12-29T07:42:55;11.70;64.80
4312;DHT22;2169;49.086;9.284;2022-12-29T07:45:22;11.70;64.70
4312;DHT22;2169;49.086;9.284;2022-12-29T07:47:50;11.70;64.50
4312;DHT22;2169;49.086;9.284;2022-12-29T07:50:28;11.70;64.50
4312;DHT22;2169;49.086;9.284;2022-12-29T07:52:56;11.70;64.50
4312;DHT22;2169;49.086;9.284;2022-12-29T07:55:23;11.70;64.40
4312;DHT22;2169;49.086;9.284;2022-12-29T07:57:49;11.70;64.40
4312;DHT22;2169;49.086;9.284;2022-12-29T08:00:19;11.70;64.40
4312;DHT22;2169;49.086;9.284;2022-12-29T08:02:46;11.70;64.30
4312;DHT22;2169;49.086;9.284;2022-12-29T08:05:12;11.70;64.30
4312;DHT22;2169;49.086;9.284;2022-12-29T08:07:42;11.70;64.30
4312;DHT22;2169;49.086;9.284;2022-12-29T08:10:11;11.70;64.30
4312;DHT22;2169;49.086;9.284;2022-12-29T08:12:39;11.70;64.40
4312;DHT22;2169;49.086;9.284;2022-12-29T08:15:06;11.70;64.40
4312;DHT22;2169;49.086;9.284;2022-12-29T08:17:34;11.60;64.40
4312;DHT22;2169;49.086;9.284;2022-12-29T08:20:01;11.60;64.30
4312;DHT22;2169;49.086;9.284;2022-12-29T08:22:28;11.60;64.40
4312;DHT22;2169;49.086;9.284;2022-12-29T08:24:55;11.60;64.40
4312;DHT22;2169;49.086;9.284;2022-12-29T08:27:23;11.60;64.40
4312;DHT22;2169;49.086;9.284;2022-12-29T08:29:50;11.60;64.40
4312;DHT22;2169;49.086;9.284;2022-12-29T08:32:17;11.60;64.30
4312;DHT22;2169;49.086;9.284;2022-12-29T08:34:44;11.60;64.30
4312;DHT22;2169;49.086;9.284;2022-12-29T08:37:11;11.50;64.20
4312;DHT22;2169;49.086;9.284;2022-12-29T08:39:38;11.50;64.20
4312;DHT22;2169;49.086;9.284;2022-12-29T08:42:05;11.50;64.20
4312;DHT22;2169;49.086;9.284;2022-12-29T08:44:33;11.50;64.80
4312;DHT22;2169;49.086;9.284;2022-12-29T08:47:00;11.50;64.10
4312;DHT22;2169;49.086;9.284;2022-12-29T08:49:26;11.50;64.00
4312;DHT22;2169;49.086;9.284;2022-12-29T08:51:53;11.50;64.00
4312;DHT22;2169;49.086;9.284;2022-12-29T08:54:20;11.50;64.00
4312;DHT22;2169;49.086;9.284;2022-12-29T08:56:47;11.50;63.90
4312;DHT22;2169;49.086;9.284;2022-12-29T08:59:13;11.60;64.00
4312;DHT22;2169;49.086;9.284;2022-12-29T09:01:41;11.60;63.90
4312;DHT22;2169;49.086;9.284;2022-12-29T09:04:08;11.60;63.90
4312;DHT22;2169;49.086;9.284;2022-12-29T09:06:35;11.60;63.90
4312;DHT22;2169;49.086;9.284;2022-12-29T09:09:02;11.60;63.80
4312;DHT22;2169;49.086;9.284;2022-12-29T09:11:29;11.60;63.80
4312;DHT22;2169;49.086;9.284;2022-12-29T09:13:56;11.60;63.70
4312;DHT22;2169;49.086;9.284;2022-12-29T09:16:23;11.60;63.70
4312;DHT22;2169;49.086;9.284;2022-12-29T09:18:52;11.60;63.70
4312;DHT22;2169;49.086;9.284;2022-12-29T09:21:19;11.70;63.80
4312;DHT22;2169;49.086;9.284;2022-12-29T09:23:45;11.70;63.70
4312;DHT22;2169;49.086;9.284;2022-12-29T09:26:12;11.70;63.70
4312;DHT22;2169;49.086;9.284;2022-12-29T09:28:39;11.70;63.70
4312;DHT22;2169;49.086;9.284;2022-12-29T09:31:06;11.70;63.60
4312;DHT22;2169;49.086;9.284;2022-12-29T09:33:34;11.80;63.70
4312;DHT22;2169;49.086;9.284;2022-12-29T09:36:02;11.80;63.70
4312;DHT22;2169;49.086;9.284;2022-12-29T09:38:30;11.80;63.70
4312;DHT22;2169;49.086;9.284;2022-12-29T09:41:01;11.80;63.70
4312;DHT22;2169;49.086;9.284;2022-12-29T09:43:46;11.90;63.70
4312;DHT22;2169;49.086;9.284;2022-12-29T09:46:22;11.90;63.60
4312;DHT22;2169;49.086;9.284;2022-12-29T09:48:53;11.90;63.60
4312;DHT22;2169;49.086;9.284;2022-12-29T09:51:24;11.90;63.50
4312;DHT22;2169;49.086;9.284;2022-12-29T09:53:55;11.90;63.40
4312;DHT22;2169;49.086;9.284;2022-12-29T09:56:25;12.00;63.50
4312;DHT22;2169;49.086;9.284;2022-12-29T09:58:55;12.00;63.40
4312;DHT22;2169;49.086;9.284;2022-12-29T10:01:29;12.00;63.30
4312;DHT22;2169;49.086;9.284;2022-12-29T10:03:58;12.00;63.30
4312;DHT22;2169;49.086;9.284;2022-12-29T10:06:33;12.10;63.40
4312;DHT22;2169;49.086;9.284;2022-12-29T10:09:06;12.10;63.40
4312;DHT22;2169;49.086;9.284;2022-12-29T10:11:52;12.10;63.40
4312;DHT22;2169;49.086;9.284;2022-12-29T10:14:33;12.10;63.30
4312;DHT22;2169;49.086;9.284;2022-12-29T10:17:12;12.10;63.20
4312;DHT22;2169;49.086;9.284;2022-12-29T10:20:02;12.20;63.30
4312;DHT22;2169;49.086;9.284;2022-12-29T10:22:42;12.20;63.40
4312;DHT22;2169;49.086;9.284;2022-12-29T10:25:19;12.20;63.30
4312;DHT22;2169;49.086;9.284;2022-12-29T10:27:48;12.30;63.40
4312;DHT22;2169;49.086;9.284;2022-12-29T10:30:17;12.30;63.40
4312;DHT22;2169;49.086;9.284;2022-12-29T10:32:48;12.30;63.40
4312;DHT22;2169;49.086;9.284;2022-12-29T10:35:20;12.30;63.40
4312;DHT22;2169;49.086;9.284;2022-12-29T10:37:53;12.40;63.50
4312;DHT22;2169;49.086;9.284;2022-12-29T10:40:27;12.40;63.60
4312;DHT22;2169;49.086;9.284;2022-12-29T10:42:56;12.40;63.60
4312;DHT22;2169;49.086;9.284;2022-12-29T10:45:27;12.40;63.60
4312;DHT22;2169;49.086;9.284;2022-12-29T10:47:59;12.40;63.60
4312;DHT22;2169;49.086;9.284;2022-12-29T10:50:28;12.50;63.70
4312;DHT22;2169;49.086;9.284;2022-12-29T10:52:59;12.50;63.70
4312;DHT22;2169;49.086;9.284;2022-12-29T10:55:30;12.60;63.70
4312;DHT22;2169;49.086;9.284;2022-12-29T10:58:02;12.70;63.60
4312;DHT22;2169;49.086;9.284;2022-12-29T11:00:31;12.70;63.50
4312;DHT22;2169;49.086;9.284;2022-12-29T11:03:12;12.80;63.50
4312;DHT22;2169;49.086;9.284;2022-12-29T11:05:48;12.90;63.30
4312;DHT22;2169;49.086;9.284;2022-12-29T11:08:24;12.90;63.10
4312;DHT22;2169;49.086;9.284;2022-12-29T11:10:58;12.90;62.80
4312;DHT22;2169;49.086;9.284;2022-12-29T11:13:28;13.00;62.80
4312;DHT22;2169;49.086;9.284;2022-12-29T11:15:55;13.00;62.70
4312;DHT22;2169;49.086;9.284;2022-12-29T11:18:24;13.10;62.60
4312;DHT22;2169;49.086;9.284;2022-12-29T11:20:55;13.10;62.60
4312;DHT22;2169;49.086;9.284;2022-12-29T11:23:31;13.20;62.60
4312;DHT22;2169;49.086;9.284;2022-12-29T11:26:07;13.20;62.50
4312;DHT22;2169;49.086;9.284;2022-12-29T11:28:39;13.30;62.30
4312;DHT22;2169;49.086;9.284;2022-12-29T11:31:08;13.30;62.10
4312;DHT22;2169;49.086;9.284;2022-12-29T11:33:36;13.30;61.80
4312;DHT22;2169;49.086;9.284;2022-12-29T11:36:06;13.30;61.70
4312;DHT22;2169;49.086;9.284;2022-12-29T11:38:37;13.40;61.80
4312;DHT22;2169;49.086;9.284;2022-12-29T11:41:09;13.40;61.80
4312;DHT22;2169;49.086;9.284;2022-12-29T11:43:41;13.40;61.70
4312;DHT22;2169;49.086;9.284;2022-12-29T11:46:14;13.40;61.60
4312;DHT22;2169;49.086;9.284;2022-12-29T11:48:43;13.40;61.60
4312;DHT22;2169;49.086;9.284;2022-12-29T11:51:11;13.40;61.50
4312;DHT22;2169;49.086;9.284;2022-12-29T11:53:43;13.50;61.60
4312;DHT22;2169;49.086;9.284;2022-12-29T11:56:15;13.50;61.40
4312;DHT22;2169;49.086;9.284;2022-12-29T11:58:43;13.50;61.40
4312;DHT22;2169;49.086;9.284;2022-12-29T12:01:15;13.50;61.40
4312;DHT22;2169;49.086;9.284;2022-12-29T12:03:46;13.50;61.40
4312;DHT22;2169;49.086;9.284;2022-12-29T12:06:16;13.60;61.30
4312;DHT22;2169;49.086;9.284;2022-12-29T12:08:53;13.60;61.10
4312;DHT22;2169;49.086;9.284;2022-12-29T12:11:23;13.60;61.00
4312;DHT22;2169;49.086;9.284;2022-12-29T12:14:02;13.60;61.00
4312;DHT22;2169;49.086;9.284;2022-12-29T12:16:34;13.60;60.90
4312;DHT22;2169;49.086;9.284;2022-12-29T12:19:09;13.60;60.80
4312;DHT22;2169;49.086;9.284;2022-12-29T12:21:41;13.60;60.80
4312;DHT22;2169;49.086;9.284;2022-12-29T12:24:36;13.60;60.60
4312;DHT22;2169;49.086;9.284;2022-12-29T12:27:11;13.70;60.60
4312;DHT22;2169;49.086;9.284;2022-12-29T12:29:45;13.70;60.80
4312;DHT22;2169;49.086;9.284;2022-12-29T12:32:17;13.70;60.80
4312;DHT22;2169;49.086;9.284;2022-12-29T12:34:48;13.70;60.60
4312;DHT22;2169;49.086;9.284;2022-12-29T12:37:38;13.70;60.60
4312;DHT22;2169;49.086;9.284;2022-12-29T12:40:25;13.70;60.30
4312;DHT22;2169;49.086;9.284;2022-12-29T12:43:02;13.70;60.30
4312;DHT22;2169;49.086;9.284;2022-12-29T12:45:42;13.70;60.30
4312;DHT22;2169;49.086;9.284;2022-12-29T12:48:44;13.80;60.40
4312;DHT22;2169;49.086;9.284;2022-12-29T12:51:19;13.80;60.40
4312;DHT22;2169;49.086;9.284;2022-12-29T12:54:04;13.80;60.60
4312;DHT22;2169;49.086;9.284;2022-12-29T12:56:56;13.90;60.50
4312;DHT22;2169;49.086;9.284;2022-12-29T12:59:36;13.90;60.40
4312;DHT22;2169;49.086;9.284;2022-12-29T13:02:17;13.90;60.40
4312;DHT22;2169;49.086;9.284;2022-12-29T13:04:57;13.90;60.40
4312;DHT22;2169;49.086;9.284;2022-12-29T13:07:36;13.90;60.40
4312;DHT22;2169;49.086;9.284;2022-12-29T13:10:23;13.90;60.40
4312;DHT22;2169;49.086;9.284;2022-12-29T13:13:01;13.90;60.40
4312;DHT22;2169;49.086;9.284;2022-12-29T13:15:41;13.90;60.50
4312;DHT22;2169;49.086;9.284;2022-12-29T13:18:21;13.90;60.60
4312;DHT22;2169;49.086;9.284;2022-12-29T13:20:55;13.90;60.70
4312;DHT22;2169;49.086;9.284;2022-12-29T13:23:29;13.90;60.80
4312;DHT22;2169;49.086;9.284;2022-12-29T13:26:04;14.00;60.80
4312;DHT22;2169;49.086;9.284;2022-12-29T13:28:37;13.90;60.70
4312;DHT22;2169;49.086;9.284;2022-12-29T13:31:12;13.90;60.80
4312;DHT22;2169;49.086;9.284;2022-12-29T13:33:46;13.90;60.80
4312;DHT22;2169;49.086;9.284;2022-12-29T13:36:22;13.90;60.90
4312;DHT22;2169;49.086;9.284;2022-12-29T13:38:54;13.90;61.60
4312;DHT22;2169;49.086;9.284;2022-12-29T13:41:29;13.90;60.80
4312;DHT22;2169;49.086;9.284;2022-12-29T13:44:00;13.90;60.90
4312;DHT22;2169;49.086;9.284;2022-12-29T13:46:34;13.90;61.00
4312;DHT22;2169;49.086;9.284;2022-12-29T13:49:06;13.90;61.10
4312;DHT22;2169;49.086;9.284;2022-12-29T13:51:34;13.90;61.20
4312;DHT22;2169;49.086;9.284;2022-12-29T13:54:12;13.90;61.30
4312;DHT22;2169;49.086;9.284;2022-12-29T13:56:45;13.90;61.40
4312;DHT22;2169;49.086;9.284;2022-12-29T13:59:21;13.90;61.50
4312;DHT22;2169;49.086;9.284;2022-12-29T14:01:54;13.90;61.50
4312;DHT22;2169;49.086;9.284;2022-12-29T14:04:24;13.80;61.50
4312;DHT22;2169;49.086;9.284;2022-12-29T14:07:01;13.90;61.70
4312;DHT22;2169;49.086;9.284;2022-12-29T14:09:45;13.90;61.70
4312;DHT22;2169;49.086;9.284;2022-12-29T14:12:31;13.90;61.60
4312;DHT22;2169;49.086;9.284;2022-12-29T14:15:18;13.80;61.50
4312;DHT22;2169;49.086;9.284;2022-12-29T14:18:01;13.80;61.50
4312;DHT22;2169;49.086;9.284;2022-12-29T14:20:28;13.80;61.50
4312;DHT22;2169;49.086;9.284;2022-12-29T14:22:58;13.70;61.50
4312;DHT22;2169;49.086;9.284;2022-12-29T14:25:57;13.70;61.70
4312;DHT22;2169;49.086;9.284;2022-12-29T14:28:26;13.70;61.80
4312;DHT22;2169;49.086;9.284;2022-12-29T14:30:56;13.70;62.00
4312;DHT22;2169;49.086;9.284;2022-12-29T14:33:24;13.60;62.20
4312;DHT22;2169;49.086;9.284;2022-12-29T14:35:52;13.60;62.40
4312;DHT22;2169;49.086;9.284;2022-12-29T14:38:25;13.50;62.60
4312;DHT22;2169;49.086;9.284;2022-12-29T14:41:16;13.50;62.70
4312;DHT22;2169;49.086;9.284;2022-12-29T14:43:57;13.40;62.70
4312;DHT22;2169;49.086;9.284;2022-12-29T14:46:54;13.30;62.80
4312;DHT22;2169;49.086;9.284;2022-12-29T14:49:24;13.30;63.00
4312;DHT22;2169;49.086;9.284;2022-12-29T14:51:53;13.20;63.80
4312;DHT22;2169;49.086;9.284;2022-12-29T14:54:44;13.20;63.30
4312;DHT22;2169;49.086;9.284;2022-12-29T14:57:20;13.20;63.40
4312;DHT22;2169;49.086;9.284;2022-12-29T14:59:48;13.10;63.50
4312;DHT22;2169;49.086;9.284;2022-12-29T15:02:23;13.10;63.70
4312;DHT22;2169;49.086;9.284;2022-12-29T15:04:53;13.10;63.80
4312;DHT22;2169;49.086;9.284;2022-12-29T15:07:27;13.00;63.90
4312;DHT22;2169;49.086;9.284;2022-12-29T15:10:00;13.00;64.00
4312;DHT22;2169;49.086;9.284;2022-12-29T15:12:35;13.00;64.10
4312;DHT22;2169;49.086;9.284;2022-12-29T15:15:18;13.00;64.20
4312;DHT22;2169;49.086;9.284;2022-12-29T15:17:47;12.90;64.20
4312;DHT22;2169;49.086;9.284;2022-12-29T15:20:21;12.90;64.40
4312;DHT22;2169;49.086;9.284;2022-12-29T15:22:50;12.90;64.50
4312;DHT22;2169;49.086;9.284;2022-12-29T15:25:18;12.80;64.70
4312;DHT22;2169;49.086;9.284;2022-12-29T15:27:50;12.70;64.80
4312;DHT22;2169;49.086;9.284;2022-12-29T15:30:17;12.70;65.00
4312;DHT22;2169;49.086;9.284;2022-12-29T15:32:47;12.70;65.30
4312;DHT22;2169;49.086;9.284;2022-12-29T15:35:33;12.60;65.60
4312;DHT22;2169;49.086;9.284;2022-12-29T15:38:12;12.60;66.00
4312;DHT22;2169;49.086;9.284;2022-12-29T15:40:43;12.50;66.30
4312;DHT22;2169;49.086;9.284;2022-12-29T15:43:34;12.40;66.60
4312;DHT22;2169;49.086;9.284;2022-12-29T15:46:03;12.30;66.70
4312;DHT22;2169;49.086;9.284;2022-12-29T15:48:32;12.30;67.00
4312;DHT22;2169;49.086;9.284;2022-12-29T15:51:00;12.20;67.10
4312;DHT22;2169;49.086;9.284;2022-12-29T15:53:28;12.20;67.40
4312;DHT22;2169;49.086;9.284;2022-12-29T15:55:58;12.10;67.50
4312;DHT22;2169;49.086;9.284;2022-12-29T15:58:28;12.10;67.60
4312;DHT22;2169;49.086;9.284;2022-12-29T16:00:57;12.10;67.80
4312;DHT22;2169;49.086;9.284;2022-12-29T16:03:25;12.10;67.90
4312;DHT22;2169;49.086;9.284;2022-12-29T16:05:56;12.10;68.00
4312;DHT22;2169;49.086;9.284;2022-12-29T16:08:31;12.10;68.20
4312;DHT22;2169;49.086;9.284;2022-12-29T16:11:00;12.10;68.40
4312;DHT22;2169;49.086;9.284;2022-12-29T16:13:31;12.00;68.30
4312;DHT22;2169;49.086;9.284;2022-12-29T16:16:02;12.00;68.40
4312;DHT22;2169;49.086;9.284;2022-12-29T16:18:35;12.00;68.50
4312;DHT22;2169;49.086;9.284;2022-12-29T16:21:05;12.00;68.60
4312;DHT22;2169;49.086;9.284;2022-12-29T16:23:36;12.00;68.70
4312;DHT22;2169;49.086;9.284;2022-12-29T16:26:03;12.00;68.70
4312;DHT22;2169;49.086;9.284;2022-12-29T16:28:36;12.00;68.80
4312;DHT22;2169;49.086;9.284;2022-12-29T16:31:18;12.00;68.90
4312;DHT22;2169;49.086;9.284;2022-12-29T16:33:47;12.00;69.00
4312;DHT22;2169;49.086;9.284;2022-12-29T16:36:40;11.90;69.00